sensor_id;sensor_type;location;lat;lon;timestamp;P1;durP1;ratioP1;P2;durP2;ratioP2
26040;SDS011;13816;53.628;9.950;2024-02-21T00:00:27;39.90;;;23.13;;
26040;SDS011;13816;53.628;9.950;2024-02-21T00:02:54;43.87;;;23.00;;
26040;SDS011;13816;53.628;9.950;2024-02-21T00:05:25;48.57;;;23.70;;
26040;SDS011;13816;53.628;9.950;2024-02-21T00:07:53;53.17;;;23.20;;
26040;SDS011;13816;53.628;9.950;2024-02-21T00:10:21;45.27;;;22.80;;
26040;SDS011;13816;53.628;9.950;2024-02-21T00:12:48;57.60;;;24.77;;
26040;SDS011;13816;53.628;9.950;2024-02-21T00:15:16;50.53;;;23.63;;
26040;SDS011;13816;53.628;9.950;2024-02-21T00:17:43;49.93;;;24.30;;
26040;SDS011;13816;53.628;9.950;2024-02-21T00:20:11;54.47;;;24.50;;
26040;SDS011;13816;53.628;9.950;2024-02-21T00:22:39;45.60;;;26.23;;
26040;SDS011;13816;53.628;9.950;2024-02-21T00:25:07;45.17;;;25.70;;
26040;SDS011;13816;53.628;9.950;2024-02-21T00:27:34;56.30;;;25.60;;
26040;SDS011;13816;53.628;9.950;2024-02-21T00:30:02;50.23;;;24.40;;
26040;SDS011;13816;53.628;9.950;2024-02-21T00:32:30;48.60;;;25.60;;
26040;SDS011;13816;53.628;9.950;2024-02-21T00:34:58;46.43;;;25.33;;
26040;SDS011;13816;53.628;9.950;2024-02-21T00:37:26;36.70;;;24.50;;
26040;SDS011;13816;53.628;9.950;2024-02-21T00:39:54;56.13;;;26.83;;
26040;SDS011;13816;53.628;9.950;2024-02-21T00:42:21;48.37;;;25.47;;
26040;SDS011;13816;53.628;9.950;2024-02-21T00:44:49;47.33;;;25.93;;
26040;SDS011;13816;53.628;9.950;2024-02-21T00:47:16;52.33;;;25.93;;
26040;SDS011;13816;53.628;9.950;2024-02-21T00:49:44;50.47;;;27.50;;
26040;SDS011;13816;53.628;9.950;2024-02-21T00:52:11;42.70;;;24.10;;
26040;SDS011;13816;53.628;9.950;2024-02-21T00:54:39;54.63;;;26.50;;
26040;SDS011;13816;53.628;9.950;2024-02-21T00:57:13;49.03;;;27.20;;
26040;SDS011;13816;53.628;9.950;2024-02-21T00:59:40;52.57;;;25.77;;
26040;SDS011;13816;53.628;9.950;2024-02-21T01:02:09;43.60;;;24.37;;
26040;SDS011;13816;53.628;9.950;2024-02-21T01:04:36;61.57;;;29.77;;
26040;SDS011;13816;53.628;9.950;2024-02-21T01:07:04;41.33;;;25.23;;
26040;SDS011;13816;53.628;9.950;2024-02-21T01:09:31;55.20;;;26.47;;
26040;SDS011;13816;53.628;9.950;2024-02-21T01:11:59;48.43;;;24.37;;
26040;SDS011;13816;53.628;9.950;2024-02-21T01:14:26;68.17;;;26.03;;
26040;SDS011;13816;53.628;9.950;2024-02-21T01:16:54;46.17;;;25.50;;
26040;SDS011;13816;53.628;9.950;2024-02-21T01:19:22;43.93;;;25.37;;
26040;SDS011;13816;53.628;9.950;2024-02-21T01:21:50;47.83;;;25.77;;
26040;SDS011;13816;53.628;9.950;2024-02-21T01:24:17;58.17;;;25.90;;
26040;SDS011;13816;53.628;9.950;2024-02-21T01:26:45;45.97;;;24.83;;
26040;SDS011;13816;53.628;9.950;2024-02-21T01:29:13;38.43;;;24.37;;
26040;SDS011;13816;53.628;9.950;2024-02-21T01:31:40;42.47;;;24.93;;
26040;SDS011;13816;53.628;9.950;2024-02-21T01:34:08;54.10;;;24.33;;
26040;SDS011;13816;53.628;9.950;2024-02-21T01:36:36;47.57;;;25.70;;
26040;SDS011;13816;53.628;9.950;2024-02-21T01:39:03;47.23;;;24.23;;
26040;SDS011;13816;53.628;9.950;2024-02-21T01:41:31;38.43;;;23.67;;
26040;SDS011;13816;53.628;9.950;2024-02-21T01:43:59;36.80;;;23.13;;
26040;SDS011;13816;53.628;9.950;2024-02-21T01:46:26;40.73;;;23.50;;
26040;SDS011;13816;53.628;9.950;2024-02-21T01:48:55;52.50;;;24.70;;
26040;SDS011;13816;53.628;9.950;2024-02-21T01:51:23;56.43;;;27.10;;
26040;SDS011;13816;53.628;9.950;2024-02-21T01:53:51;47.33;;;23.77;;
26040;SDS011;13816;53.628;9.950;2024-02-21T01:56:20;44.30;;;24.90;;
26040;SDS011;13816;53.628;9.950;2024-02-21T01:58:48;41.13;;;24.73;;
26040;SDS011;13816;53.628;9.950;2024-02-21T02:01:16;49.70;;;24.33;;
26040;SDS011;13816;53.628;9.950;2024-02-21T02:03:47;40.97;;;23.17;;
26040;SDS011;13816;53.628;9.950;2024-02-21T02:06:14;47.40;;;24.20;;
26040;SDS011;13816;53.628;9.950;2024-02-21T02:08:42;40.03;;;25.40;;
26040;SDS011;13816;53.628;9.950;2024-02-21T02:11:10;45.50;;;25.77;;
26040;SDS011;13816;53.628;9.950;2024-02-21T02:13:38;50.53;;;26.40;;
26040;SDS011;13816;53.628;9.950;2024-02-21T02:16:05;51.50;;;26.23;;
26040;SDS011;13816;53.628;9.950;2024-02-21T02:18:33;50.93;;;24.57;;
26040;SDS011;13816;53.628;9.950;2024-02-21T02:21:00;48.40;;;25.20;;
26040;SDS011;13816;53.628;9.950;2024-02-21T02:23:32;58.30;;;26.87;;
26040;SDS011;13816;53.628;9.950;2024-02-21T02:25:59;53.70;;;27.00;;
26040;SDS011;13816;53.628;9.950;2024-02-21T02:28:30;54.67;;;28.50;;
26040;SDS011;13816;53.628;9.950;2024-02-21T02:30:58;55.10;;;27.93;;
26040;SDS011;13816;53.628;9.950;2024-02-21T02:33:25;51.43;;;29.97;;
26040;SDS011;13816;53.628;9.950;2024-02-21T02:35:53;50.63;;;29.80;;
26040;SDS011;13816;53.628;9.950;2024-02-21T02:38:20;53.30;;;25.70;;
26040;SDS011;13816;53.628;9.950;2024-02-21T02:40:48;47.17;;;27.53;;
26040;SDS011;13816;53.628;9.950;2024-02-21T02:43:15;57.27;;;29.13;;
26040;SDS011;13816;53.628;9.950;2024-02-21T02:45:43;56.13;;;31.87;;
26040;SDS011;13816;53.628;9.950;2024-02-21T02:48:10;50.27;;;29.63;;
26040;SDS011;13816;53.628;9.950;2024-02-21T02:50:38;51.60;;;30.40;;
26040;SDS011;13816;53.628;9.950;2024-02-21T02:53:05;58.07;;;34.10;;
26040;SDS011;13816;53.628;9.950;2024-02-21T02:55:33;61.93;;;33.20;;
26040;SDS011;13816;53.628;9.950;2024-02-21T02:58:02;62.20;;;33.30;;
26040;SDS011;13816;53.628;9.950;2024-02-21T03:00:29;47.90;;;31.80;;
26040;SDS011;13816;53.628;9.950;2024-02-21T03:02:57;57.23;;;32.43;;
26040;SDS011;13816;53.628;9.950;2024-02-21T03:05:24;45.83;;;30.80;;
26040;SDS011;13816;53.628;9.950;2024-02-21T03:07:52;56.43;;;34.20;;
26040;SDS011;13816;53.628;9.950;2024-02-21T03:10:20;55.27;;;30.73;;
26040;SDS011;13816;53.628;9.950;2024-02-21T03:12:47;54.90;;;32.70;;
26040;SDS011;13816;53.628;9.950;2024-02-21T03:15:15;50.80;;;32.03;;
26040;SDS011;13816;53.628;9.950;2024-02-21T03:17:42;45.33;;;30.57;;
26040;SDS011;13816;53.628;9.950;2024-02-21T03:20:10;49.10;;;29.70;;
26040;SDS011;13816;53.628;9.950;2024-02-21T03:22:39;53.93;;;28.60;;
26040;SDS011;13816;53.628;9.950;2024-02-21T03:25:08;57.47;;;31.63;;
26040;SDS011;13816;53.628;9.950;2024-02-21T03:27:36;54.77;;;25.60;;
26040;SDS011;13816;53.628;9.950;2024-02-21T03:30:04;56.50;;;29.87;;
26040;SDS011;13816;53.628;9.950;2024-02-21T03:32:32;49.40;;;29.17;;
26040;SDS011;13816;53.628;9.950;2024-02-21T03:35:00;51.60;;;26.17;;
26040;SDS011;13816;53.628;9.950;2024-02-21T03:37:27;46.17;;;25.70;;
26040;SDS011;13816;53.628;9.950;2024-02-21T03:39:55;47.83;;;27.03;;
26040;SDS011;13816;53.628;9.950;2024-02-21T03:42:23;49.27;;;23.20;;
26040;SDS011;13816;53.628;9.950;2024-02-21T03:44:50;46.30;;;27.20;;
26040;SDS011;13816;53.628;9.950;2024-02-21T03:47:18;46.37;;;25.50;;
26040;SDS011;13816;53.628;9.950;2024-02-21T03:49:45;45.47;;;27.20;;
26040;SDS011;13816;53.628;9.950;2024-02-21T03:52:13;52.33;;;27.70;;
26040;SDS011;13816;53.628;9.950;2024-02-21T03:54:40;48.23;;;25.40;;
26040;SDS011;13816;53.628;9.950;2024-02-21T03:57:08;51.30;;;26.00;;
26040;SDS011;13816;53.628;9.950;2024-02-21T03:59:36;41.73;;;24.10;;
26040;SDS011;13816;53.628;9.950;2024-02-21T04:02:09;55.27;;;26.17;;
26040;SDS011;13816;53.628;9.950;2024-02-21T04:04:36;41.37;;;24.67;;
26040;SDS011;13816;53.628;9.950;2024-02-21T04:07:04;38.30;;;25.03;;
26040;SDS011;13816;53.628;9.950;2024-02-21T04:09:33;43.23;;;25.73;;
26040;SDS011;13816;53.628;9.950;2024-02-21T04:12:00;46.30;;;25.03;;
26040;SDS011;13816;53.628;9.950;2024-02-21T04:14:28;42.83;;;24.03;;
26040;SDS011;13816;53.628;9.950;2024-02-21T04:16:56;44.90;;;24.50;;
26040;SDS011;13816;53.628;9.950;2024-02-21T04:19:24;49.17;;;26.50;;
26040;SDS011;13816;53.628;9.950;2024-02-21T04:21:52;42.30;;;24.30;;
26040;SDS011;13816;53.628;9.950;2024-02-21T04:24:19;44.93;;;24.40;;
26040;SDS011;13816;53.628;9.950;2024-02-21T04:26:47;41.17;;;23.73;;
26040;SDS011;13816;53.628;9.950;2024-02-21T04:29:15;40.47;;;23.60;;
26040;SDS011;13816;53.628;9.950;2024-02-21T04:31:43;39.57;;;24.13;;
26040;SDS011;13816;53.628;9.950;2024-02-21T04:34:10;45.20;;;23.37;;
26040;SDS011;13816;53.628;9.950;2024-02-21T04:36:38;42.23;;;25.13;;
26040;SDS011;13816;53.628;9.950;2024-02-21T04:39:06;40.30;;;23.07;;
26040;SDS011;13816;53.628;9.950;2024-02-21T04:41:33;32.37;;;23.80;;
26040;SDS011;13816;53.628;9.950;2024-02-21T04:44:01;30.10;;;20.10;;
26040;SDS011;13816;53.628;9.950;2024-02-21T04:46:30;32.10;;;21.93;;
26040;SDS011;13816;53.628;9.950;2024-02-21T04:48:58;33.13;;;23.37;;
26040;SDS011;13816;53.628;9.950;2024-02-21T04:51:25;31.37;;;22.50;;
26040;SDS011;13816;53.628;9.950;2024-02-21T04:53:53;34.50;;;21.87;;
26040;SDS011;13816;53.628;9.950;2024-02-21T04:56:20;33.70;;;21.77;;
26040;SDS011;13816;53.628;9.950;2024-02-21T04:59:06;34.50;;;22.23;;
26040;SDS011;13816;53.628;9.950;2024-02-21T05:01:46;27.43;;;20.10;;
26040;SDS011;13816;53.628;9.950;2024-02-21T05:07:56;27.60;;;16.43;;
26040;SDS011;13816;53.628;9.950;2024-02-21T05:10:39;28.07;;;18.30;;
26040;SDS011;13816;53.628;9.950;2024-02-21T05:13:39;35.07;;;19.43;;
26040;SDS011;13816;53.628;9.950;2024-02-21T05:16:11;24.20;;;16.57;;
26040;SDS011;13816;53.628;9.950;2024-02-21T05:18:45;28.57;;;18.00;;
26040;SDS011;13816;53.628;9.950;2024-02-21T05:22:05;23.90;;;18.13;;
26040;SDS011;13816;53.628;9.950;2024-02-21T05:24:53;25.27;;;18.13;;
26040;SDS011;13816;53.628;9.950;2024-02-21T05:28:41;36.00;;;19.20;;
26040;SDS011;13816;53.628;9.950;2024-02-21T05:31:55;21.50;;;16.07;;
26040;SDS011;13816;53.628;9.950;2024-02-21T05:38:21;27.00;;;17.37;;
26040;SDS011;13816;53.628;9.950;2024-02-21T05:40:56;20.27;;;15.87;;
26040;SDS011;13816;53.628;9.950;2024-02-21T05:43:41;24.97;;;15.70;;
26040;SDS011;13816;53.628;9.950;2024-02-21T05:46:08;23.60;;;14.83;;
26040;SDS011;13816;53.628;9.950;2024-02-21T05:48:37;18.93;;;12.87;;
26040;SDS011;13816;53.628;9.950;2024-02-21T05:51:17;17.57;;;13.90;;
26040;SDS011;13816;53.628;9.950;2024-02-21T05:53:56;17.93;;;13.13;;
26040;SDS011;13816;53.628;9.950;2024-02-21T05:56:26;18.20;;;12.57;;
26040;SDS011;13816;53.628;9.950;2024-02-21T06:02:58;17.73;;;11.87;;
26040;SDS011;13816;53.628;9.950;2024-02-21T06:05:44;19.30;;;11.50;;
26040;SDS011;13816;53.628;9.950;2024-02-21T06:08:47;18.30;;;9.87;;
26040;SDS011;13816;53.628;9.950;2024-02-21T06:11:15;14.83;;;9.77;;
26040;SDS011;13816;53.628;9.950;2024-02-21T06:13:45;13.83;;;9.10;;
26040;SDS011;13816;53.628;9.950;2024-02-21T06:16:29;14.53;;;9.63;;
26040;SDS011;13816;53.628;9.950;2024-02-21T06:19:08;11.57;;;7.53;;
26040;SDS011;13816;53.628;9.950;2024-02-21T06:21:36;12.00;;;7.73;;
26040;SDS011;13816;53.628;9.950;2024-02-21T06:24:25;10.43;;;5.77;;
26040;SDS011;13816;53.628;9.950;2024-02-21T06:27:00;9.17;;;6.57;;
26040;SDS011;13816;53.628;9.950;2024-02-21T06:29:31;8.00;;;6.67;;
26040;SDS011;13816;53.628;9.950;2024-02-21T06:32:03;7.00;;;5.33;;
26040;SDS011;13816;53.628;9.950;2024-02-21T06:34:39;8.10;;;5.83;;
26040;SDS011;13816;53.628;9.950;2024-02-21T06:37:20;11.93;;;5.83;;
26040;SDS011;13816;53.628;9.950;2024-02-21T06:40:05;8.80;;;5.90;;
26040;SDS011;13816;53.628;9.950;2024-02-21T06:42:42;5.80;;;5.00;;
26040;SDS011;13816;53.628;9.950;2024-02-21T06:45:35;7.10;;;4.83;;
26040;SDS011;13816;53.628;9.950;2024-02-21T06:48:17;6.37;;;4.37;;
26040;SDS011;13816;53.628;9.950;2024-02-21T06:50:47;5.10;;;4.60;;
26040;SDS011;13816;53.628;9.950;2024-02-21T06:53:15;6.50;;;4.00;;
26040;SDS011;13816;53.628;9.950;2024-02-21T06:56:16;4.13;;;3.50;;
26040;SDS011;13816;53.628;9.950;2024-02-21T06:59:58;5.53;;;4.07;;
26040;SDS011;13816;53.628;9.950;2024-02-21T07:02:44;5.80;;;4.03;;
26040;SDS011;13816;53.628;9.950;2024-02-21T07:05:19;5.13;;;4.20;;
26040;SDS011;13816;53.628;9.950;2024-02-21T07:08:18;7.37;;;5.17;;
26040;SDS011;13816;53.628;9.950;2024-02-21T07:14:46;8.47;;;5.70;;
26040;SDS011;13816;53.628;9.950;2024-02-21T07:18:03;7.30;;;4.90;;
26040;SDS011;13816;53.628;9.950;2024-02-21T07:25:47;5.50;;;3.83;;
26040;SDS011;13816;53.628;9.950;2024-02-21T07:28:30;6.90;;;3.80;;
26040;SDS011;13816;53.628;9.950;2024-02-21T07:31:01;6.27;;;4.80;;
26040;SDS011;13816;53.628;9.950;2024-02-21T07:33:29;4.10;;;3.60;;
26040;SDS011;13816;53.628;9.950;2024-02-21T07:36:06;15.43;;;3.87;;
26040;SDS011;13816;53.628;9.950;2024-02-21T07:38:34;3.53;;;3.20;;
26040;SDS011;13816;53.628;9.950;2024-02-21T07:41:26;6.87;;;3.80;;
26040;SDS011;13816;53.628;9.950;2024-02-21T07:43:59;12.80;;;4.00;;
26040;SDS011;13816;53.628;9.950;2024-02-21T07:46:30;10.80;;;4.60;;
26040;SDS011;13816;53.628;9.950;2024-02-21T07:49:12;9.50;;;4.77;;
26040;SDS011;13816;53.628;9.950;2024-02-21T07:51:40;14.30;;;4.30;;
26040;SDS011;13816;53.628;9.950;2024-02-21T07:57:07;20.40;;;5.57;;
26040;SDS011;13816;53.628;9.950;2024-02-21T07:59:37;20.30;;;5.70;;
26040;SDS011;13816;53.628;9.950;2024-02-21T08:02:12;9.30;;;5.17;;
26040;SDS011;13816;53.628;9.950;2024-02-21T08:04:46;18.30;;;5.87;;
26040;SDS011;13816;53.628;9.950;2024-02-21T08:07:16;10.77;;;4.47;;
26040;SDS011;13816;53.628;9.950;2024-02-21T08:09:48;16.57;;;4.57;;
26040;SDS011;13816;53.628;9.950;2024-02-21T08:12:21;20.47;;;5.10;;
26040;SDS011;13816;53.628;9.950;2024-02-21T08:14:56;13.20;;;5.20;;
26040;SDS011;13816;53.628;9.950;2024-02-21T08:20:24;20.30;;;5.40;;
26040;SDS011;13816;53.628;9.950;2024-02-21T08:22:58;22.97;;;5.93;;
26040;SDS011;13816;53.628;9.950;2024-02-21T08:25:29;15.77;;;5.30;;
26040;SDS011;13816;53.628;9.950;2024-02-21T08:27:59;18.77;;;4.50;;
26040;SDS011;13816;53.628;9.950;2024-02-21T08:30:27;31.03;;;5.40;;
26040;SDS011;13816;53.628;9.950;2024-02-21T08:33:03;22.50;;;4.80;;
26040;SDS011;13816;53.628;9.950;2024-02-21T08:35:38;29.53;;;6.00;;
26040;SDS011;13816;53.628;9.950;2024-02-21T08:38:09;24.53;;;5.00;;
26040;SDS011;13816;53.628;9.950;2024-02-21T08:40:46;17.63;;;5.10;;
26040;SDS011;13816;53.628;9.950;2024-02-21T08:43:14;16.60;;;5.20;;
26040;SDS011;13816;53.628;9.950;2024-02-21T08:45:47;24.27;;;5.23;;
26040;SDS011;13816;53.628;9.950;2024-02-21T08:48:14;18.03;;;5.00;;
26040;SDS011;13816;53.628;9.950;2024-02-21T08:50:42;22.60;;;5.23;;
26040;SDS011;13816;53.628;9.950;2024-02-21T08:53:15;23.07;;;5.00;;
26040;SDS011;13816;53.628;9.950;2024-02-21T08:55:43;21.37;;;4.23;;
26040;SDS011;13816;53.628;9.950;2024-02-21T08:58:12;21.47;;;6.10;;
26040;SDS011;13816;53.628;9.950;2024-02-21T09:00:46;17.00;;;4.93;;
26040;SDS011;13816;53.628;9.950;2024-02-21T09:03:14;20.30;;;5.60;;
26040;SDS011;13816;53.628;9.950;2024-02-21T09:05:41;25.03;;;6.17;;
26040;SDS011;13816;53.628;9.950;2024-02-21T09:08:09;20.80;;;5.03;;
26040;SDS011;13816;53.628;9.950;2024-02-21T09:10:36;27.73;;;5.03;;
26040;SDS011;13816;53.628;9.950;2024-02-21T09:13:07;18.80;;;4.47;;
26040;SDS011;13816;53.628;9.950;2024-02-21T09:15:40;19.47;;;4.83;;
26040;SDS011;13816;53.628;9.950;2024-02-21T09:18:08;22.23;;;5.40;;
26040;SDS011;13816;53.628;9.950;2024-02-21T09:20:35;24.80;;;6.10;;
26040;SDS011;13816;53.628;9.950;2024-02-21T09:23:07;21.27;;;4.93;;
26040;SDS011;13816;53.628;9.950;2024-02-21T09:25:38;21.83;;;5.23;;
26040;SDS011;13816;53.628;9.950;2024-02-21T09:28:06;25.40;;;5.17;;
26040;SDS011;13816;53.628;9.950;2024-02-21T09:30:34;21.33;;;5.27;;
26040;SDS011;13816;53.628;9.950;2024-02-21T09:33:02;19.60;;;4.80;;
26040;SDS011;13816;53.628;9.950;2024-02-21T09:35:30;18.07;;;5.20;;
26040;SDS011;13816;53.628;9.950;2024-02-21T09:38:02;18.00;;;5.13;;
26040;SDS011;13816;53.628;9.950;2024-02-21T09:40:29;19.63;;;4.93;;
26040;SDS011;13816;53.628;9.950;2024-02-21T09:43:03;24.77;;;5.17;;
26040;SDS011;13816;53.628;9.950;2024-02-21T09:45:36;14.30;;;4.50;;
26040;SDS011;13816;53.628;9.950;2024-02-21T09:48:11;15.27;;;3.70;;
26040;SDS011;13816;53.628;9.950;2024-02-21T09:50:43;12.57;;;3.40;;
26040;SDS011;13816;53.628;9.950;2024-02-21T09:53:17;19.07;;;4.00;;
26040;SDS011;13816;53.628;9.950;2024-02-21T09:55:52;18.63;;;4.60;;
26040;SDS011;13816;53.628;9.950;2024-02-21T09:58:23;15.67;;;4.43;;
26040;SDS011;13816;53.628;9.950;2024-02-21T10:01:04;6.70;;;3.10;;
26040;SDS011;13816;53.628;9.950;2024-02-21T10:03:47;10.90;;;3.47;;
26040;SDS011;13816;53.628;9.950;2024-02-21T10:06:16;14.97;;;4.20;;
26040;SDS011;13816;53.628;9.950;2024-02-21T10:08:51;20.33;;;3.83;;
26040;SDS011;13816;53.628;9.950;2024-02-21T10:11:30;14.57;;;3.80;;
26040;SDS011;13816;53.628;9.950;2024-02-21T10:14:04;13.60;;;3.87;;
26040;SDS011;13816;53.628;9.950;2024-02-21T10:16:36;16.37;;;4.20;;
26040;SDS011;13816;53.628;9.950;2024-02-21T10:19:06;11.40;;;3.87;;
26040;SDS011;13816;53.628;9.950;2024-02-21T10:21:34;8.70;;;4.60;;
26040;SDS011;13816;53.628;9.950;2024-02-21T10:24:04;7.40;;;4.60;;
26040;SDS011;13816;53.628;9.950;2024-02-21T10:26:33;8.20;;;4.07;;
26040;SDS011;13816;53.628;9.950;2024-02-21T10:29:08;8.03;;;5.27;;
26040;SDS011;13816;53.628;9.950;2024-02-21T10:35:32;9.20;;;7.03;;
26040;SDS011;13816;53.628;9.950;2024-02-21T10:38:02;17.47;;;9.10;;
26040;SDS011;13816;53.628;9.950;2024-02-21T10:40:40;12.37;;;8.83;;
26040;SDS011;13816;53.628;9.950;2024-02-21T10:43:14;19.13;;;11.13;;
26040;SDS011;13816;53.628;9.950;2024-02-21T10:46:05;19.03;;;12.43;;
26040;SDS011;13816;53.628;9.950;2024-02-21T10:48:44;20.07;;;12.70;;
26040;SDS011;13816;53.628;9.950;2024-02-21T10:51:31;22.27;;;14.70;;
26040;SDS011;13816;53.628;9.950;2024-02-21T10:56:51;26.50;;;17.50;;
26040;SDS011;13816;53.628;9.950;2024-02-21T10:59:19;26.50;;;20.30;;
26040;SDS011;13816;53.628;9.950;2024-02-21T11:01:47;33.67;;;22.90;;
26040;SDS011;13816;53.628;9.950;2024-02-21T11:04:15;30.07;;;21.87;;
26040;SDS011;13816;53.628;9.950;2024-02-21T11:06:44;35.63;;;23.50;;
26040;SDS011;13816;53.628;9.950;2024-02-21T11:09:11;36.10;;;24.47;;
26040;SDS011;13816;53.628;9.950;2024-02-21T11:11:40;32.77;;;24.60;;
26040;SDS011;13816;53.628;9.950;2024-02-21T11:14:09;35.30;;;23.90;;
26040;SDS011;13816;53.628;9.950;2024-02-21T11:16:38;43.70;;;26.40;;
26040;SDS011;13816;53.628;9.950;2024-02-21T11:19:10;34.57;;;25.30;;
26040;SDS011;13816;53.628;9.950;2024-02-21T11:21:46;41.17;;;26.03;;
26040;SDS011;13816;53.628;9.950;2024-02-21T11:24:25;43.13;;;25.77;;
26040;SDS011;13816;53.628;9.950;2024-02-21T11:26:53;40.73;;;25.37;;
26040;SDS011;13816;53.628;9.950;2024-02-21T11:29:24;38.23;;;26.30;;
26040;SDS011;13816;53.628;9.950;2024-02-21T11:31:58;39.30;;;25.93;;
26040;SDS011;13816;53.628;9.950;2024-02-21T11:34:25;32.80;;;22.57;;
26040;SDS011;13816;53.628;9.950;2024-02-21T11:36:54;37.90;;;22.83;;
26040;SDS011;13816;53.628;9.950;2024-02-21T11:39:23;37.93;;;21.90;;
26040;SDS011;13816;53.628;9.950;2024-02-21T11:44:42;37.03;;;22.50;;
26040;SDS011;13816;53.628;9.950;2024-02-21T11:47:42;31.13;;;20.27;;
26040;SDS011;13816;53.628;9.950;2024-02-21T11:50:10;31.80;;;20.10;;
26040;SDS011;13816;53.628;9.950;2024-02-21T11:52:38;28.43;;;18.27;;
26040;SDS011;13816;53.628;9.950;2024-02-21T11:55:06;24.87;;;17.53;;
26040;SDS011;13816;53.628;9.950;2024-02-21T11:57:36;24.60;;;16.20;;
26040;SDS011;13816;53.628;9.950;2024-02-21T12:00:16;25.00;;;15.40;;
26040;SDS011;13816;53.628;9.950;2024-02-21T12:02:44;27.13;;;14.97;;
26040;SDS011;13816;53.628;9.950;2024-02-21T12:05:12;25.00;;;15.00;;
26040;SDS011;13816;53.628;9.950;2024-02-21T12:07:40;26.47;;;14.63;;
26040;SDS011;13816;53.628;9.950;2024-02-21T12:10:08;25.00;;;15.10;;
26040;SDS011;13816;53.628;9.950;2024-02-21T12:12:37;22.43;;;15.13;;
26040;SDS011;13816;53.628;9.950;2024-02-21T12:15:07;25.00;;;15.60;;
26040;SDS011;13816;53.628;9.950;2024-02-21T12:17:36;24.20;;;15.23;;
26040;SDS011;13816;53.628;9.950;2024-02-21T12:20:05;27.30;;;15.87;;
26040;SDS011;13816;53.628;9.950;2024-02-21T12:22:36;22.30;;;14.40;;
26040;SDS011;13816;53.628;9.950;2024-02-21T12:25:15;28.10;;;15.17;;
26040;SDS011;13816;53.628;9.950;2024-02-21T12:27:44;23.37;;;14.80;;
26040;SDS011;13816;53.628;9.950;2024-02-21T12:30:12;23.83;;;15.80;;
26040;SDS011;13816;53.628;9.950;2024-02-21T12:32:40;21.43;;;12.67;;
26040;SDS011;13816;53.628;9.950;2024-02-21T12:35:08;28.33;;;15.97;;
26040;SDS011;13816;53.628;9.950;2024-02-21T12:37:35;22.00;;;16.03;;
26040;SDS011;13816;53.628;9.950;2024-02-21T12:40:05;28.00;;;16.60;;
26040;SDS011;13816;53.628;9.950;2024-02-21T12:42:33;26.70;;;15.13;;
26040;SDS011;13816;53.628;9.950;2024-02-21T12:45:01;24.93;;;15.37;;
26040;SDS011;13816;53.628;9.950;2024-02-21T12:47:32;27.87;;;16.20;;
26040;SDS011;13816;53.628;9.950;2024-02-21T12:50:00;27.03;;;14.40;;
26040;SDS011;13816;53.628;9.950;2024-02-21T12:52:30;24.60;;;15.90;;
26040;SDS011;13816;53.628;9.950;2024-02-21T12:55:01;21.20;;;14.67;;
26040;SDS011;13816;53.628;9.950;2024-02-21T12:57:32;30.77;;;16.50;;
26040;SDS011;13816;53.628;9.950;2024-02-21T13:00:00;22.50;;;14.90;;
26040;SDS011;13816;53.628;9.950;2024-02-21T13:02:28;23.40;;;13.73;;
26040;SDS011;13816;53.628;9.950;2024-02-21T13:04:57;21.57;;;13.97;;
26040;SDS011;13816;53.628;9.950;2024-02-21T13:07:27;25.73;;;16.30;;
26040;SDS011;13816;53.628;9.950;2024-02-21T13:09:54;31.47;;;17.60;;
26040;SDS011;13816;53.628;9.950;2024-02-21T13:12:22;32.27;;;16.73;;
26040;SDS011;13816;53.628;9.950;2024-02-21T13:14:50;28.13;;;15.30;;
26040;SDS011;13816;53.628;9.950;2024-02-21T13:17:17;26.03;;;15.90;;
26040;SDS011;13816;53.628;9.950;2024-02-21T13:19:45;32.20;;;15.87;;
26040;SDS011;13816;53.628;9.950;2024-02-21T13:22:13;27.27;;;16.10;;
26040;SDS011;13816;53.628;9.950;2024-02-21T13:24:41;28.93;;;16.87;;
26040;SDS011;13816;53.628;9.950;2024-02-21T13:27:08;28.17;;;16.60;;
26040;SDS011;13816;53.628;9.950;2024-02-21T13:29:36;25.50;;;16.10;;
26040;SDS011;13816;53.628;9.950;2024-02-21T13:32:06;24.63;;;16.20;;
26040;SDS011;13816;53.628;9.950;2024-02-21T13:34:35;30.03;;;15.97;;
26040;SDS011;13816;53.628;9.950;2024-02-21T13:37:13;25.33;;;15.70;;
26040;SDS011;13816;53.628;9.950;2024-02-21T13:39:47;25.43;;;17.03;;
26040;SDS011;13816;53.628;9.950;2024-02-21T13:42:25;24.07;;;15.73;;
26040;SDS011;13816;53.628;9.950;2024-02-21T13:45:03;31.70;;;16.10;;
26040;SDS011;13816;53.628;9.950;2024-02-21T13:47:34;26.23;;;15.37;;
26040;SDS011;13816;53.628;9.950;2024-02-21T13:50:05;24.37;;;16.80;;
26040;SDS011;13816;53.628;9.950;2024-02-21T13:52:41;21.37;;;15.37;;
26040;SDS011;13816;53.628;9.950;2024-02-21T13:55:12;29.70;;;14.70;;
26040;SDS011;13816;53.628;9.950;2024-02-21T13:57:40;25.70;;;16.33;;
26040;SDS011;13816;53.628;9.950;2024-02-21T14:00:18;23.43;;;14.73;;
26040;SDS011;13816;53.628;9.950;2024-02-21T14:02:49;26.20;;;15.93;;
26040;SDS011;13816;53.628;9.950;2024-02-21T14:05:18;34.40;;;17.20;;
26040;SDS011;13816;53.628;9.950;2024-02-21T14:08:06;29.50;;;14.07;;
26040;SDS011;13816;53.628;9.950;2024-02-21T14:10:46;25.90;;;15.20;;
26040;SDS011;13816;53.628;9.950;2024-02-21T14:13:14;27.63;;;14.50;;
26040;SDS011;13816;53.628;9.950;2024-02-21T14:15:51;23.53;;;13.60;;
26040;SDS011;13816;53.628;9.950;2024-02-21T14:18:22;24.10;;;14.93;;
26040;SDS011;13816;53.628;9.950;2024-02-21T14:20:50;22.90;;;13.57;;
26040;SDS011;13816;53.628;9.950;2024-02-21T14:23:22;27.33;;;13.27;;
26040;SDS011;13816;53.628;9.950;2024-02-21T14:25:54;21.87;;;14.23;;
26040;SDS011;13816;53.628;9.950;2024-02-21T14:28:21;24.73;;;14.13;;
26040;SDS011;13816;53.628;9.950;2024-02-21T14:30:49;26.40;;;14.23;;
26040;SDS011;13816;53.628;9.950;2024-02-21T14:33:20;26.17;;;14.00;;
26040;SDS011;13816;53.628;9.950;2024-02-21T14:35:50;20.57;;;13.90;;
26040;SDS011;13816;53.628;9.950;2024-02-21T14:38:29;23.50;;;14.50;;
26040;SDS011;13816;53.628;9.950;2024-02-21T14:41:07;23.73;;;12.77;;
26040;SDS011;13816;53.628;9.950;2024-02-21T14:43:41;22.27;;;13.57;;
26040;SDS011;13816;53.628;9.950;2024-02-21T14:46:19;22.80;;;14.43;;
26040;SDS011;13816;53.628;9.950;2024-02-21T14:48:55;24.47;;;12.80;;
26040;SDS011;13816;53.628;9.950;2024-02-21T14:51:31;22.83;;;11.83;;
26040;SDS011;13816;53.628;9.950;2024-02-21T14:54:10;22.67;;;12.33;;
26040;SDS011;13816;53.628;9.950;2024-02-21T14:56:46;19.97;;;10.70;;
26040;SDS011;13816;53.628;9.950;2024-02-21T14:59:43;16.10;;;11.30;;
26040;SDS011;13816;53.628;9.950;2024-02-21T15:02:20;21.60;;;10.87;;
26040;SDS011;13816;53.628;9.950;2024-02-21T15:05:08;17.73;;;10.60;;
26040;SDS011;13816;53.628;9.950;2024-02-21T15:07:53;19.03;;;10.03;;
26040;SDS011;13816;53.628;9.950;2024-02-21T15:10:30;29.00;;;11.17;;
26040;SDS011;13816;53.628;9.950;2024-02-21T15:13:09;24.67;;;9.67;;
26040;SDS011;13816;53.628;9.950;2024-02-21T15:15:39;16.57;;;10.23;;
26040;SDS011;13816;53.628;9.950;2024-02-21T15:18:14;19.67;;;10.30;;
26040;SDS011;13816;53.628;9.950;2024-02-21T15:20:47;19.13;;;9.93;;
26040;SDS011;13816;53.628;9.950;2024-02-21T15:23:15;16.03;;;9.00;;
26040;SDS011;13816;53.628;9.950;2024-02-21T15:25:44;18.93;;;9.10;;
26040;SDS011;13816;53.628;9.950;2024-02-21T15:28:15;20.80;;;9.53;;
26040;SDS011;13816;53.628;9.950;2024-02-21T15:30:45;16.67;;;9.90;;